createdAt,value
2022-11-20T00:01:09.675Z,99961.56
2022-11-20T00:03:36.555Z,99963.19
2022-11-20T00:06:08.554Z,99959.69
2022-11-20T00:08:35.622Z,99959.69
2022-11-20T00:11:15.555Z,99954.59
2022-11-20T00:13:43.296Z,99954.88
2022-11-20T00:16:12.081Z,99962.38
2022-11-20T00:18:38.587Z,99957.09
2022-11-20T00:21:07.125Z,99960.63
2022-11-20T00:23:34.919Z,99973.50
2022-11-20T00:26:06.464Z,99966.56
2022-11-20T00:28:33.425Z,99960.63
2022-11-20T00:31:08.363Z,99955.44
2022-11-20T00:33:35.674Z,99951.13
2022-11-20T00:36:10.576Z,99961.50
2022-11-20T00:38:38.185Z,99961.50
2022-11-20T00:41:07.839Z,99952.06
2022-11-20T00:43:34.790Z,99944.31
2022-11-20T00:46:08.160Z,99952.06
2022-11-20T00:48:34.633Z,99939.44
2022-11-20T00:51:01.798Z,99947.88
2022-11-20T00:53:28.597Z,99945.19
2022-11-20T00:56:05.190Z,99948.13
2022-11-20T00:58:33.980Z,99952.22
2022-11-20T01:01:06.855Z,99959.81
2022-11-20T01:03:35.454Z,99955.78
2022-11-20T01:06:23.966Z,99954.13
2022-11-20T01:08:53.183Z,99961.78
2022-11-20T01:11:22.798Z,99971.09
2022-11-20T01:13:52.028Z,99967.66
2022-11-20T01:16:21.757Z,99964.97
2022-11-20T01:18:51.685Z,99963.97
2022-11-20T01:21:21.186Z,99967.69
2022-11-20T01:23:49.299Z,99970.13
2022-11-20T01:26:22.995Z,99963.34
2022-11-20T01:28:50.637Z,99959.78
2022-11-20T01:31:34.777Z,99968.41
2022-11-20T01:34:05.380Z,99959.06
2022-11-20T01:36:33.846Z,99956.28
2022-11-20T01:39:03.781Z,99958.13
2022-11-20T01:41:50.692Z,99960.63
2022-11-20T01:44:20.088Z,99964.97
2022-11-20T01:47:02.166Z,99955.69
2022-11-20T01:49:38.183Z,99942.63
2022-11-20T01:52:12.297Z,99939.22
2022-11-20T01:54:49.948Z,99937.66
2022-11-20T01:57:38.996Z,99932.53
2022-11-20T02:00:25.608Z,99936.72
2022-11-20T02:03:16.659Z,99928.13
2022-11-20T02:06:11.036Z,99934.06
2022-11-20T02:08:57.694Z,99952.09
2022-11-20T02:11:44.143Z,99942.75
2022-11-20T02:14:11.882Z,99934.84
2022-11-20T02:16:46.534Z,99926.25
2022-11-20T02:19:32.562Z,99927.06
2022-11-20T02:22:19.674Z,99932.25
2022-11-20T02:24:49.634Z,99930.41
2022-11-20T02:27:17.637Z,99931.25
2022-11-20T02:30:04.173Z,99938.13
2022-11-20T02:32:33.623Z,99934.69
2022-11-20T02:35:11.363Z,99941.66
2022-11-20T02:37:41.342Z,99933.03
2022-11-20T02:40:08.424Z,99926.94
2022-11-20T02:42:35.291Z,99910.69
2022-11-20T02:45:01.965Z,99909.88
2022-11-20T02:47:28.812Z,99900.50
2022-11-20T02:49:55.463Z,99894.31
2022-11-20T02:52:22.170Z,99899.50
2022-11-20T02:54:48.747Z,99898.78
2022-11-20T02:57:15.530Z,99904.69
2022-11-20T02:59:42.002Z,99918.44
2022-11-20T03:02:08.638Z,99915.84
2022-11-20T03:04:35.764Z,99914.91
2022-11-20T03:07:03.125Z,99907.06
2022-11-20T03:09:29.729Z,99905.59
2022-11-20T03:11:56.729Z,99909.06
2022-11-20T03:14:23.635Z,99903.91
2022-11-20T03:16:50.640Z,99907.34
2022-11-20T03:19:17.490Z,99904.78
2022-11-20T03:21:44.418Z,99897.94
2022-11-20T03:24:11.096Z,99901.34
2022-11-20T03:26:37.542Z,99908.09
2022-11-20T03:29:05.760Z,99909.63
2022-11-20T03:31:35.357Z,99904.63
2022-11-20T03:34:03.926Z,99897.59
2022-11-20T03:36:31.293Z,99900.16
2022-11-20T03:38:58.634Z,99908.72
2022-11-20T03:41:31.047Z,99902.09
2022-11-20T03:44:00.471Z,99914.88
2022-11-20T03:46:28.626Z,99910.44
2022-11-20T03:48:55.871Z,99915.44
2022-11-20T03:51:24.713Z,99912.81
2022-11-20T03:53:53.462Z,99916.47
2022-11-20T03:56:24.121Z,99906.94
2022-11-20T03:58:51.340Z,99914.69
2022-11-20T04:01:23.506Z,99911.16
2022-11-20T04:03:53.529Z,99913.75
2022-11-20T04:06:23.529Z,99903.41
2022-11-20T04:08:53.861Z,99902.69
2022-11-20T04:11:26.008Z,99905.25
2022-11-20T04:13:56.056Z,99908.56
2022-11-20T04:16:24.023Z,99902.56
2022-11-20T04:18:55.210Z,99907.25
2022-11-20T04:21:22.190Z,99908.88
2022-11-20T04:23:49.974Z,99900.94
2022-11-20T04:26:16.872Z,99902.78
2022-11-20T04:28:43.894Z,99896.63
2022-11-20T04:31:14.513Z,99899.28
2022-11-20T04:33:42.448Z,99892.34
2022-11-20T04:36:12.784Z,99890.50
2022-11-20T04:38:39.804Z,99893.06
2022-11-20T04:41:08.597Z,99888.78
2022-11-20T04:43:35.241Z,99891.53
2022-11-20T04:46:02.650Z,99887.06
2022-11-20T04:48:30.826Z,99883.56
2022-11-20T04:50:57.988Z,99880.88
2022-11-20T04:53:24.792Z,99890.50
2022-11-20T04:55:51.832Z,99889.59
2022-11-20T04:58:18.456Z,99894.97
2022-11-20T05:00:45.601Z,99888.75
2022-11-20T05:03:12.055Z,99886.06
2022-11-20T05:05:38.992Z,99873.94
2022-11-20T05:08:05.703Z,99871.41
2022-11-20T05:10:32.118Z,99871.41
2022-11-20T05:12:58.746Z,99866.25
2022-11-20T05:15:26.230Z,99876.63
2022-11-20T05:17:54.188Z,99875.63
2022-11-20T05:20:21.055Z,99883.38
2022-11-20T05:22:47.814Z,99870.41
2022-11-20T05:25:14.491Z,99867.03
2022-11-20T05:27:41.013Z,99865.19
2022-11-20T05:30:08.931Z,99861.81
2022-11-20T05:32:35.952Z,99860.03
2022-11-20T05:35:02.412Z,99853.16
2022-11-20T05:37:29.584Z,99861.66
2022-11-20T05:39:56.280Z,99852.16
2022-11-20T05:42:32.160Z,99857.25
2022-11-20T05:45:04.104Z,99855.50
2022-11-20T05:47:34.291Z,99860.00
2022-11-20T05:50:01.287Z,99856.41
2022-11-20T05:52:31.483Z,99852.97
2022-11-20T05:54:58.374Z,99857.22
2022-11-20T05:57:25.292Z,99852.97
2022-11-20T05:59:52.341Z,99859.00
2022-11-20T06:02:18.851Z,99855.41
2022-11-20T06:04:45.808Z,99854.72
2022-11-20T06:07:12.646Z,99856.41
2022-11-20T06:09:39.130Z,99861.47
2022-11-20T06:12:06.327Z,99854.66
2022-11-20T06:14:32.745Z,99850.28
2022-11-20T06:17:00.427Z,99843.34
2022-11-20T06:19:26.932Z,99847.56
2022-11-20T06:21:53.423Z,99852.69
2022-11-20T06:24:19.899Z,99851.78
2022-11-20T06:26:47.308Z,99852.75
2022-11-20T06:29:13.868Z,99849.38
2022-11-20T06:31:40.826Z,99854.56
2022-11-20T06:34:07.749Z,99857.03
2022-11-20T06:36:34.513Z,99859.78
2022-11-20T06:39:01.869Z,99851.84
2022-11-20T06:41:28.899Z,99855.22
2022-11-20T06:43:56.026Z,99860.31
2022-11-20T06:46:23.190Z,99857.88
2022-11-20T06:48:51.067Z,99851.78
2022-11-20T06:51:17.812Z,99854.19
2022-11-20T06:53:45.300Z,99855.97
2022-11-20T06:56:11.947Z,99857.00
2022-11-20T06:58:38.839Z,99866.44
2022-11-20T07:01:16.050Z,99864.63
2022-11-20T07:03:43.050Z,99869.78
2022-11-20T07:06:10.442Z,99875.72
2022-11-20T07:08:37.445Z,99884.19
2022-11-20T07:11:06.814Z,99874.16
2022-11-20T07:13:33.738Z,99877.53
2022-11-20T07:16:02.112Z,99877.63
2022-11-20T07:18:28.646Z,99874.94
2022-11-20T07:20:55.221Z,99876.56
2022-11-20T07:23:21.706Z,99873.19
2022-11-20T07:25:48.870Z,99874.25
2022-11-20T07:28:15.427Z,99873.97
2022-11-20T07:30:42.360Z,99879.91
2022-11-20T07:33:09.087Z,99879.94
2022-11-20T07:35:36.738Z,99879.94
2022-11-20T07:38:03.544Z,99880.69
2022-11-20T07:40:30.516Z,99880.78
2022-11-20T07:42:57.140Z,99873.81
2022-11-20T07:45:25.304Z,99877.94
2022-11-20T07:47:52.473Z,99880.50
2022-11-20T07:50:20.553Z,99877.16
2022-11-20T07:52:47.335Z,99877.09
2022-11-20T07:55:14.991Z,99872.66
2022-11-20T07:57:41.842Z,99874.38
2022-11-20T08:00:11.822Z,99878.59
2022-11-20T08:02:42.006Z,99881.81
2022-11-20T08:05:12.402Z,99882.84
2022-11-20T08:07:40.191Z,99888.72
2022-11-20T08:10:08.817Z,99882.03
2022-11-20T08:12:54.555Z,99883.72
2022-11-20T08:15:21.314Z,99899.28
2022-11-20T08:18:08.438Z,99904.47
2022-11-20T08:20:35.701Z,99900.09
2022-11-20T08:23:04.117Z,99911.00
2022-11-20T08:25:31.779Z,99916.84
2022-11-20T08:28:15.725Z,99923.69
2022-11-20T08:30:47.113Z,99919.44
2022-11-20T08:33:13.636Z,99923.69
2022-11-20T08:35:42.321Z,99925.44
2022-11-20T08:38:10.235Z,99924.78
2022-11-20T08:40:36.911Z,99933.53
2022-11-20T08:43:03.711Z,99943.44
2022-11-20T08:45:34.044Z,99940.13
2022-11-20T08:48:03.469Z,99944.44
2022-11-20T08:50:32.752Z,99940.78
2022-11-20T08:53:06.190Z,99946.59
2022-11-20T08:55:33.589Z,99955.31
2022-11-20T08:58:05.023Z,99947.69
2022-11-20T09:00:32.685Z,99955.28
2022-11-20T09:02:59.802Z,99951.91
2022-11-20T09:05:26.216Z,99953.75
2022-11-20T09:07:53.047Z,99948.59
2022-11-20T09:10:28.037Z,99948.75
2022-11-20T09:12:56.179Z,99950.53
2022-11-20T09:15:24.037Z,99953.78
2022-11-20T09:17:54.821Z,99951.06
2022-11-20T09:20:21.637Z,99953.66
2022-11-20T09:22:48.480Z,99951.78
2022-11-20T09:25:15.849Z,99962.97
2022-11-20T09:27:44.517Z,99952.38
2022-11-20T09:30:11.522Z,99954.00
2022-11-20T09:32:40.090Z,99954.03
2022-11-20T09:35:07.797Z,99954.84
2022-11-20T09:37:34.585Z,99951.69
2022-11-20T09:40:01.724Z,99956.97
2022-11-20T09:42:40.381Z,99953.53
2022-11-20T09:45:31.445Z,99954.41
2022-11-20T09:48:04.295Z,99956.91
2022-11-20T09:50:41.131Z,99962.69
2022-11-20T09:53:14.756Z,99953.16
2022-11-20T09:55:41.807Z,99950.44
2022-11-20T09:58:21.026Z,99955.81
2022-11-20T10:00:49.161Z,99947.91
2022-11-20T10:03:23.294Z,99947.75
2022-11-20T10:05:53.917Z,99947.97
2022-11-20T10:08:36.929Z,99946.13
2022-11-20T10:11:17.378Z,99942.06
2022-11-20T10:14:03.360Z,99947.00
2022-11-20T10:16:57.811Z,99946.88
2022-11-20T10:19:30.626Z,99951.06
2022-11-20T10:22:18.695Z,99950.31
2022-11-20T10:24:58.492Z,99957.75
2022-11-20T10:27:31.121Z,99946.88
2022-11-20T10:30:25.148Z,99945.25
2022-11-20T10:33:09.751Z,99949.16
2022-11-20T10:35:44.042Z,99942.19
2022-11-20T10:38:17.835Z,99941.34
2022-11-20T10:40:53.775Z,99931.06
2022-11-20T10:43:34.543Z,99926.56
2022-11-20T10:46:10.426Z,99927.38
2022-11-20T10:48:39.301Z,99924.06
2022-11-20T10:51:19.018Z,99916.16
2022-11-20T10:53:59.522Z,99927.13
2022-11-20T10:56:31.992Z,99920.19
2022-11-20T10:59:33.081Z,99907.13
2022-11-20T11:02:02.657Z,99913.19
2022-11-20T11:04:38.408Z,99912.34
2022-11-20T11:07:16.319Z,99909.78
2022-11-20T11:09:53.891Z,99905.28
2022-11-20T11:12:22.342Z,99903.38
2022-11-20T11:14:51.755Z,99899.75
2022-11-20T11:17:32.839Z,99898.69
2022-11-20T11:20:07.283Z,99895.28
2022-11-20T11:22:45.821Z,99895.53
2022-11-20T11:25:21.751Z,99900.94
2022-11-20T11:27:49.954Z,99898.06
2022-11-20T11:30:18.905Z,99902.63
2022-11-20T11:32:46.186Z,99893.91
2022-11-20T11:35:24.189Z,99888.75
2022-11-20T11:37:55.467Z,99891.25
2022-11-20T11:40:24.687Z,99889.44
2022-11-20T11:43:01.144Z,99890.28
2022-11-20T11:45:30.969Z,99890.00
2022-11-20T11:48:01.218Z,99887.13
2022-11-20T11:50:30.259Z,99873.66
2022-11-20T11:53:08.993Z,99863.84
2022-11-20T11:55:45.616Z,99868.84
2022-11-20T11:58:41.780Z,99867.97
2022-11-20T12:01:26.087Z,99861.63
2022-11-20T12:04:14.478Z,99872.03
2022-11-20T12:06:46.612Z,99870.84
2022-11-20T12:09:13.333Z,99856.81
2022-11-20T12:11:56.260Z,99857.59
2022-11-20T12:14:36.397Z,99850.69
2022-11-20T12:17:03.941Z,99848.16
2022-11-20T12:19:34.195Z,99854.88
2022-11-20T12:22:05.245Z,99849.06
2022-11-20T12:24:48.258Z,99858.53
2022-11-20T12:27:15.088Z,99854.28
2022-11-20T12:29:53.748Z,99854.13
2022-11-20T12:32:36.051Z,99851.13
2022-11-20T12:35:35.588Z,99854.59
2022-11-20T12:38:08.144Z,99842.59
2022-11-20T12:40:38.127Z,99847.69
2022-11-20T12:43:48.054Z,99839.09
2022-11-20T12:47:00.160Z,99847.47
2022-11-20T12:49:43.914Z,99848.31
2022-11-20T12:52:23.006Z,99850.91
2022-11-20T12:55:12.080Z,99852.06
2022-11-20T12:57:52.941Z,99847.47
2022-11-20T13:00:21.219Z,99856.13
2022-11-20T13:03:07.885Z,99852.88
2022-11-20T13:05:46.465Z,99848.38
2022-11-20T13:08:21.683Z,99840.50
2022-11-20T13:11:15.622Z,99833.31
2022-11-20T13:14:00.991Z,99828.09
2022-11-20T13:16:53.810Z,99821.84
2022-11-20T13:19:21.481Z,99819.00
2022-11-20T13:21:51.312Z,99806.94
2022-11-20T13:24:24.829Z,99807.56
2022-11-20T13:27:13.835Z,99802.38
2022-11-20T13:29:46.685Z,99798.75
2022-11-20T13:32:20.895Z,99800.31
2022-11-20T13:34:59.029Z,99795.13
2022-11-20T13:37:37.517Z,99785.44
2022-11-20T13:40:13.514Z,99780.31
2022-11-20T13:42:46.076Z,99783.69
2022-11-20T13:45:26.170Z,99773.94
2022-11-20T13:47:54.407Z,99777.28
2022-11-20T13:50:37.547Z,99770.09
2022-11-20T13:53:30.685Z,99773.53
2022-11-20T13:56:10.649Z,99764.56
2022-11-20T13:58:56.801Z,99770.22
2022-11-20T14:01:32.888Z,99762.00
2022-11-20T14:04:05.999Z,99759.31
2022-11-20T14:06:41.057Z,99751.25
2022-11-20T14:09:13.528Z,99750.56
2022-11-20T14:11:48.186Z,99748.34
2022-11-20T14:14:18.304Z,99734.47
2022-11-20T14:16:45.322Z,99734.63
2022-11-20T14:19:21.402Z,99740.72
2022-11-20T14:22:09.300Z,99735.84
2022-11-20T14:24:36.705Z,99738.47
2022-11-20T14:27:03.289Z,99733.06
2022-11-20T14:29:36.073Z,99731.16
2022-11-20T14:32:04.562Z,99727.75
2022-11-20T14:34:33.732Z,99725.69
2022-11-20T14:37:06.773Z,99717.25
2022-11-20T14:39:36.323Z,99716.53
2022-11-20T14:42:04.764Z,99715.16
2022-11-20T14:44:38.392Z,99713.47
2022-11-20T14:47:06.186Z,99714.38
2022-11-20T14:49:33.362Z,99704.13
2022-11-20T14:52:21.622Z,99696.63
2022-11-20T14:54:49.679Z,99692.69
2022-11-20T14:57:31.596Z,99688.34
2022-11-20T15:00:20.494Z,99695.28
2022-11-20T15:02:49.874Z,99695.59
2022-11-20T15:05:18.761Z,99692.25
2022-11-20T15:07:48.478Z,99691.56
2022-11-20T15:10:29.275Z,99699.63
2022-11-20T15:12:57.818Z,99686.03
2022-11-20T15:15:52.387Z,99685.22
2022-11-20T15:18:21.998Z,99673.16
2022-11-20T15:20:51.183Z,99681.84
2022-11-20T15:23:19.717Z,99682.91
2022-11-20T15:25:47.572Z,99683.97
2022-11-20T15:28:20.864Z,99680.63
2022-11-20T15:30:48.842Z,99690.94
2022-11-20T15:33:17.201Z,99684.75
2022-11-20T15:35:44.356Z,99671.00
2022-11-20T15:38:11.455Z,99670.34
2022-11-20T15:40:38.139Z,99667.16
2022-11-20T15:43:09.665Z,99667.06
2022-11-20T15:45:41.946Z,99665.59
2022-11-20T15:48:18.828Z,99667.09
2022-11-20T15:50:53.472Z,99667.25
2022-11-20T15:53:20.435Z,99666.53
2022-11-20T15:55:47.218Z,99672.72
2022-11-20T15:58:13.651Z,99665.88
2022-11-20T16:00:40.915Z,99664.19
2022-11-20T16:03:11.850Z,99658.16
2022-11-20T16:05:39.048Z,99652.97
2022-11-20T16:08:11.332Z,99650.47
2022-11-20T16:10:39.225Z,99653.13
2022-11-20T16:13:31.692Z,99648.00
2022-11-20T16:16:00.264Z,99654.88
2022-11-20T16:18:26.742Z,99650.56
2022-11-20T16:20:55.345Z,99651.47
2022-11-20T16:23:22.226Z,99646.63
2022-11-20T16:25:49.775Z,99642.22
2022-11-20T16:28:19.046Z,99639.50
2022-11-20T16:30:46.249Z,99634.34
2022-11-20T16:33:16.170Z,99627.25
2022-11-20T16:35:42.641Z,99619.53
2022-11-20T16:38:09.997Z,99630.81
2022-11-20T16:40:38.891Z,99620.22
2022-11-20T16:43:12.156Z,99622.81
2022-11-20T16:45:41.938Z,99622.69
2022-11-20T16:48:13.152Z,99615.69
2022-11-20T16:50:45.653Z,99616.69
2022-11-20T16:53:12.558Z,99611.38
2022-11-20T16:55:39.049Z,99611.28
2022-11-20T16:58:05.976Z,99612.25
2022-11-20T17:00:32.445Z,99608.81
2022-11-20T17:02:59.264Z,99614.81
2022-11-20T17:05:26.173Z,99612.31
2022-11-20T17:07:52.636Z,99616.69
2022-11-20T17:10:19.672Z,99606.03
2022-11-20T17:12:46.118Z,99612.06
2022-11-20T17:15:12.909Z,99614.72
2022-11-20T17:17:40.020Z,99606.09
2022-11-20T17:20:06.927Z,99614.09
2022-11-20T17:22:33.719Z,99606.34
2022-11-20T17:25:00.670Z,99609.63
2022-11-20T17:27:27.384Z,99600.16
2022-11-20T17:29:54.879Z,99595.91
2022-11-20T17:32:22.081Z,99594.97
2022-11-20T17:34:48.534Z,99589.94
2022-11-20T17:37:15.665Z,99583.97
2022-11-20T17:39:42.156Z,99578.81
2022-11-20T17:42:27.514Z,99582.31
2022-11-20T17:44:54.023Z,99579.72
2022-11-20T17:47:20.957Z,99577.09
2022-11-20T17:49:47.396Z,99583.97
2022-11-20T17:52:14.115Z,99580.63
2022-11-20T17:54:41.062Z,99580.00
2022-11-20T17:57:48.057Z,99567.84
2022-11-20T18:00:17.066Z,99572.19
2022-11-20T18:02:43.797Z,99560.19
2022-11-20T18:05:10.282Z,99561.91
2022-11-20T18:07:41.646Z,99563.56
2022-11-20T18:10:09.047Z,99554.00
2022-11-20T18:12:35.944Z,99547.22
2022-11-20T18:15:02.364Z,99551.56
2022-11-20T18:17:28.875Z,99537.81
2022-11-20T18:20:21.775Z,99532.63
2022-11-20T18:22:41.740Z,99533.63
2022-11-20T18:25:08.924Z,99535.38
2022-11-20T18:27:35.358Z,99530.13
2022-11-20T18:30:02.861Z,99537.97
2022-11-20T18:32:30.232Z,99535.16
2022-11-20T18:34:56.780Z,99525.84
2022-11-20T18:37:23.283Z,99529.19
2022-11-20T18:39:50.618Z,99525.69
2022-11-20T18:42:35.922Z,99515.44
2022-11-20T18:45:05.120Z,99524.16
2022-11-20T18:47:37.373Z,99525.91
2022-11-20T18:50:06.390Z,99518.88
2022-11-20T18:52:37.521Z,99523.16
2022-11-20T18:55:05.239Z,99514.59
2022-11-20T18:57:32.036Z,99517.22
2022-11-20T19:00:03.535Z,99511.25
2022-11-20T19:05:22.121Z,99510.03
2022-11-20T19:07:49.038Z,99503.22
2022-11-20T19:10:19.974Z,99507.66
2022-11-20T19:12:46.698Z,99496.56
2022-11-20T19:15:13.145Z,99506.91
2022-11-20T19:17:39.655Z,99500.00
2022-11-20T19:20:07.144Z,99500.00
2022-11-20T19:22:33.602Z,99493.31
2022-11-20T19:25:00.098Z,99507.19
2022-11-20T19:27:26.587Z,99497.75
2022-11-20T19:29:57.417Z,99493.41
2022-11-20T19:32:24.179Z,99496.94
2022-11-20T19:34:50.649Z,99506.44
2022-11-20T19:37:17.170Z,99505.56
2022-11-20T19:39:43.817Z,99497.84
2022-11-20T19:42:10.510Z,99504.84
2022-11-20T19:44:36.967Z,99507.41
2022-11-20T19:47:07.876Z,99508.25
2022-11-20T19:49:37.115Z,99503.16
2022-11-20T19:52:03.907Z,99498.72
2022-11-20T19:54:30.394Z,99510.03
2022-11-20T19:56:56.948Z,99496.25
2022-11-20T19:59:23.793Z,99491.06
2022-11-20T20:01:53.357Z,99498.88
2022-11-20T20:04:20.550Z,99499.88
2022-11-20T20:06:47.112Z,99498.06
2022-11-20T20:09:13.682Z,99496.38
2022-11-20T20:11:40.792Z,99488.72
2022-11-20T20:14:13.558Z,99494.81
2022-11-20T20:16:40.713Z,99492.16
2022-11-20T20:19:07.269Z,99506.63
2022-11-20T20:21:36.256Z,99501.59
2022-11-20T20:24:03.397Z,99498.31
2022-11-20T20:26:32.008Z,99495.63
2022-11-20T20:28:59.415Z,99498.22
2022-11-20T20:31:29.462Z,99494.88
2022-11-20T20:33:56.664Z,99496.56
2022-11-20T20:36:24.166Z,99492.28
2022-11-20T20:38:55.194Z,99495.63
2022-11-20T20:41:24.823Z,99494.06
2022-11-20T20:44:10.661Z,99494.69
2022-11-20T20:46:37.311Z,99492.28
2022-11-20T20:49:03.877Z,99486.34
2022-11-20T20:51:30.588Z,99490.63
2022-11-20T20:53:57.117Z,99487.94
2022-11-20T20:56:23.621Z,99479.44
2022-11-20T20:58:50.272Z,99480.28
2022-11-20T21:01:19.141Z,99491.72
2022-11-20T21:03:45.787Z,99488.25
2022-11-20T21:06:12.754Z,99493.31
2022-11-20T21:08:41.155Z,99500.28
2022-11-20T21:11:10.726Z,99493.38
2022-11-20T21:13:38.356Z,99499.38
2022-11-20T21:16:05.579Z,99511.25
2022-11-20T21:18:33.135Z,99501.03
2022-11-20T21:21:19.871Z,99508.66
2022-11-20T21:23:47.659Z,99514.03
2022-11-20T21:26:15.959Z,99511.38
2022-11-20T21:28:43.074Z,99510.53
2022-11-20T21:31:12.539Z,99499.34
2022-11-20T21:33:44.828Z,99501.19
2022-11-20T21:36:15.981Z,99509.78
2022-11-20T21:38:43.875Z,99506.34
2022-11-20T21:41:11.486Z,99504.50
2022-11-20T21:43:38.517Z,99501.19
2022-11-20T21:46:10.838Z,99494.34
2022-11-20T21:48:39.771Z,99488.53
2022-11-20T21:51:15.361Z,99488.38
2022-11-20T21:53:42.947Z,99485.88
2022-11-20T21:56:11.311Z,99490.22
2022-11-20T21:58:39.651Z,99488.66
2022-11-20T22:01:10.897Z,99485.22
2022-11-20T22:03:38.858Z,99488.75
2022-11-20T22:06:06.716Z,99488.69
2022-11-20T22:08:37.605Z,99486.19
2022-11-20T22:11:10.601Z,99485.25
2022-11-20T22:13:55.644Z,99484.38
2022-11-20T22:16:22.650Z,99470.78
2022-11-20T22:18:51.640Z,99474.91
2022-11-20T22:21:20.259Z,99467.81
2022-11-20T22:23:47.310Z,99483.50
2022-11-20T22:26:19.099Z,99483.38
2022-11-20T22:28:50.785Z,99492.13
2022-11-20T22:31:18.725Z,99490.31
2022-11-20T22:33:45.316Z,99495.38
2022-11-20T22:36:14.290Z,99488.47
2022-11-20T22:38:41.347Z,99487.53
2022-11-20T22:41:10.070Z,99481.47
2022-11-20T22:43:37.682Z,99484.75
2022-11-20T22:46:07.717Z,99480.47
2022-11-20T22:48:35.824Z,99470.13
2022-11-20T22:51:04.301Z,99470.06
2022-11-20T22:53:31.208Z,99461.31
2022-11-20T22:55:57.964Z,99471.56
2022-11-20T22:58:25.113Z,99476.06
2022-11-20T23:00:52.362Z,99480.28
2022-11-20T23:03:19.100Z,99487.94
2022-11-20T23:05:46.519Z,99478.38
2022-11-20T23:08:13.133Z,99485.22
2022-11-20T23:10:40.110Z,99492.91
2022-11-20T23:13:06.551Z,99486.03
2022-11-20T23:15:34.227Z,99478.25
2022-11-20T23:18:01.187Z,99484.25
2022-11-20T23:20:27.728Z,99479.00
2022-11-20T23:22:55.076Z,99489.41
2022-11-20T23:25:21.887Z,99479.00
2022-11-20T23:27:48.327Z,99487.53
2022-11-20T23:30:15.070Z,99488.38
2022-11-20T23:32:42.019Z,99480.63
2022-11-20T23:35:09.256Z,99484.03
2022-11-20T23:37:35.724Z,99478.03
2022-11-20T23:40:03.147Z,99468.63
2022-11-20T23:42:30.095Z,99469.47
2022-11-20T23:44:56.529Z,99475.53
2022-11-20T23:47:23.483Z,99472.91
2022-11-20T23:49:50.000Z,99472.84
2022-11-20T23:52:17.239Z,99477.13
2022-11-20T23:54:43.702Z,99479.75
2022-11-20T23:57:10.415Z,99466.81
2022-11-20T23:59:37.175Z,99471.06
